sensor_id;sensor_type;location;lat;lon;timestamp;temperature;humidity
27376;DHT22;14844;51.302;6.354;2023-03-24T00:00:38;11.70;99.90
27376;DHT22;14844;51.302;6.354;2023-03-24T00:03:03;11.70;99.90
27376;DHT22;14844;51.302;6.354;2023-03-24T00:05:29;11.70;99.90
27376;DHT22;14844;51.302;6.354;2023-03-24T00:07:55;11.70;99.90
27376;DHT22;14844;51.302;6.354;2023-03-24T00:10:21;11.80;99.90
27376;DHT22;14844;51.302;6.354;2023-03-24T00:12:47;11.80;99.90
27376;DHT22;14844;51.302;6.354;2023-03-24T00:15:14;11.80;99.90
27376;DHT22;14844;51.302;6.354;2023-03-24T00:17:39;11.80;99.90
27376;DHT22;14844;51.302;6.354;2023-03-24T00:20:06;11.90;99.90
27376;DHT22;14844;51.302;6.354;2023-03-24T00:22:32;12.00;99.90
27376;DHT22;14844;51.302;6.354;2023-03-24T00:24:58;12.00;99.90
27376;DHT22;14844;51.302;6.354;2023-03-24T00:27:23;12.00;99.90
27376;DHT22;14844;51.302;6.354;2023-03-24T00:29:49;12.20;99.90
27376;DHT22;14844;51.302;6.354;2023-03-24T00:32:14;12.20;99.90
27376;DHT22;14844;51.302;6.354;2023-03-24T00:34:41;12.20;99.90
27376;DHT22;14844;51.302;6.354;2023-03-24T00:37:07;12.20;99.90
27376;DHT22;14844;51.302;6.354;2023-03-24T00:39:33;12.30;99.90
27376;DHT22;14844;51.302;6.354;2023-03-24T00:41:59;12.30;99.90
27376;DHT22;14844;51.302;6.354;2023-03-24T00:44:26;12.20;99.90
27376;DHT22;14844;51.302;6.354;2023-03-24T00:46:51;12.30;99.90
27376;DHT22;14844;51.302;6.354;2023-03-24T00:49:20;12.20;99.90
27376;DHT22;14844;51.302;6.354;2023-03-24T00:52:13;12.30;99.90
27376;DHT22;14844;51.302;6.354;2023-03-24T00:54:40;12.30;99.90
27376;DHT22;14844;51.302;6.354;2023-03-24T00:57:06;12.30;99.90
27376;DHT22;14844;51.302;6.354;2023-03-24T00:59:32;12.30;99.90
27376;DHT22;14844;51.302;6.354;2023-03-24T01:02:02;12.40;99.90
27376;DHT22;14844;51.302;6.354;2023-03-24T01:04:27;12.40;99.90
27376;DHT22;14844;51.302;6.354;2023-03-24T01:06:54;12.50;99.90
27376;DHT22;14844;51.302;6.354;2023-03-24T01:09:22;12.50;99.90
27376;DHT22;14844;51.302;6.354;2023-03-24T01:11:48;12.50;99.90
27376;DHT22;14844;51.302;6.354;2023-03-24T01:14:14;12.60;99.90
27376;DHT22;14844;51.302;6.354;2023-03-24T01:16:40;12.60;99.90
27376;DHT22;14844;51.302;6.354;2023-03-24T01:19:06;12.60;99.90
27376;DHT22;14844;51.302;6.354;2023-03-24T01:21:33;12.60;99.90
27376;DHT22;14844;51.302;6.354;2023-03-24T01:23:59;12.50;99.90
27376;DHT22;14844;51.302;6.354;2023-03-24T01:26:26;12.50;99.90
27376;DHT22;14844;51.302;6.354;2023-03-24T01:28:52;12.60;99.90
27376;DHT22;14844;51.302;6.354;2023-03-24T01:31:17;12.50;99.90
27376;DHT22;14844;51.302;6.354;2023-03-24T01:33:43;12.50;99.90
27376;DHT22;14844;51.302;6.354;2023-03-24T01:36:08;12.50;99.90
27376;DHT22;14844;51.302;6.354;2023-03-24T01:38:34;12.50;99.90
27376;DHT22;14844;51.302;6.354;2023-03-24T01:41:00;12.50;99.90
27376;DHT22;14844;51.302;6.354;2023-03-24T01:43:27;12.60;99.90
27376;DHT22;14844;51.302;6.354;2023-03-24T01:48:45;12.50;99.90
27376;DHT22;14844;51.302;6.354;2023-03-24T01:53:42;12.50;99.90
27376;DHT22;14844;51.302;6.354;2023-03-24T01:56:09;12.50;99.90
27376;DHT22;14844;51.302;6.354;2023-03-24T01:58:34;12.40;99.90
27376;DHT22;14844;51.302;6.354;2023-03-24T02:01:01;12.50;99.90
27376;DHT22;14844;51.302;6.354;2023-03-24T02:03:26;12.50;99.90
27376;DHT22;14844;51.302;6.354;2023-03-24T02:05:58;12.50;99.90
27376;DHT22;14844;51.302;6.354;2023-03-24T02:08:32;12.50;99.90
27376;DHT22;14844;51.302;6.354;2023-03-24T02:10:59;12.40;99.90
27376;DHT22;14844;51.302;6.354;2023-03-24T02:13:25;12.50;99.90
27376;DHT22;14844;51.302;6.354;2023-03-24T02:15:54;12.50;99.90
27376;DHT22;14844;51.302;6.354;2023-03-24T02:18:22;12.50;99.90
27376;DHT22;14844;51.302;6.354;2023-03-24T02:23:40;12.60;99.90
27376;DHT22;14844;51.302;6.354;2023-03-24T02:34:41;12.80;99.90
27376;DHT22;14844;51.302;6.354;2023-03-24T02:37:16;12.80;99.90
27376;DHT22;14844;51.302;6.354;2023-03-24T02:39:48;12.90;99.90
27376;DHT22;14844;51.302;6.354;2023-03-24T02:44:49;13.00;99.90
27376;DHT22;14844;51.302;6.354;2023-03-24T02:47:23;13.00;99.90
27376;DHT22;14844;51.302;6.354;2023-03-24T02:49:59;13.10;99.90
27376;DHT22;14844;51.302;6.354;2023-03-24T02:55:19;13.10;99.90
27376;DHT22;14844;51.302;6.354;2023-03-24T02:57:48;13.20;99.90
27376;DHT22;14844;51.302;6.354;2023-03-24T03:00:29;13.30;99.90
27376;DHT22;14844;51.302;6.354;2023-03-24T03:02:58;13.30;99.90
27376;DHT22;14844;51.302;6.354;2023-03-24T03:07:52;13.50;99.90
27376;DHT22;14844;51.302;6.354;2023-03-24T03:10:26;13.60;99.90
27376;DHT22;14844;51.302;6.354;2023-03-24T03:12:54;13.60;99.90
27376;DHT22;14844;51.302;6.354;2023-03-24T03:15:22;13.60;99.90
27376;DHT22;14844;51.302;6.354;2023-03-24T03:17:57;13.60;99.90
27376;DHT22;14844;51.302;6.354;2023-03-24T03:20:27;13.70;99.90
27376;DHT22;14844;51.302;6.354;2023-03-24T03:23:30;13.70;99.90
27376;DHT22;14844;51.302;6.354;2023-03-24T03:25:47;13.70;99.90
27376;DHT22;14844;51.302;6.354;2023-03-24T03:28:16;13.70;99.90
27376;DHT22;14844;51.302;6.354;2023-03-24T03:30:50;13.70;99.90
27376;DHT22;14844;51.302;6.354;2023-03-24T03:33:17;13.60;99.90
27376;DHT22;14844;51.302;6.354;2023-03-24T03:36:02;13.60;99.90
27376;DHT22;14844;51.302;6.354;2023-03-24T03:38:31;13.50;99.90
27376;DHT22;14844;51.302;6.354;2023-03-24T03:40:59;13.40;99.90
27376;DHT22;14844;51.302;6.354;2023-03-24T03:43:25;13.40;99.90
27376;DHT22;14844;51.302;6.354;2023-03-24T03:45:52;13.30;99.90
27376;DHT22;14844;51.302;6.354;2023-03-24T03:48:17;13.20;99.90
27376;DHT22;14844;51.302;6.354;2023-03-24T03:50:43;13.10;99.90
27376;DHT22;14844;51.302;6.354;2023-03-24T03:53:09;13.00;99.90
27376;DHT22;14844;51.302;6.354;2023-03-24T03:55:36;12.90;99.90
27376;DHT22;14844;51.302;6.354;2023-03-24T03:58:02;12.70;99.90
27376;DHT22;14844;51.302;6.354;2023-03-24T04:00:28;12.60;99.90
27376;DHT22;14844;51.302;6.354;2023-03-24T04:05:52;12.50;99.90
27376;DHT22;14844;51.302;6.354;2023-03-24T04:08:23;12.50;99.90
27376;DHT22;14844;51.302;6.354;2023-03-24T04:13:57;12.30;99.90
27376;DHT22;14844;51.302;6.354;2023-03-24T04:19:40;12.20;99.90
27376;DHT22;14844;51.302;6.354;2023-03-24T04:22:26;12.20;99.90
27376;DHT22;14844;51.302;6.354;2023-03-24T04:25:02;12.20;99.90
27376;DHT22;14844;51.302;6.354;2023-03-24T04:30:22;12.20;99.90
27376;DHT22;14844;51.302;6.354;2023-03-24T04:32:55;12.30;99.90
27376;DHT22;14844;51.302;6.354;2023-03-24T04:35:27;12.40;99.90
27376;DHT22;14844;51.302;6.354;2023-03-24T04:38:04;12.40;99.90
27376;DHT22;14844;51.302;6.354;2023-03-24T04:40:31;12.40;99.90
27376;DHT22;14844;51.302;6.354;2023-03-24T04:42:59;12.40;99.90
27376;DHT22;14844;51.302;6.354;2023-03-24T04:45:27;12.40;99.90
27376;DHT22;14844;51.302;6.354;2023-03-24T04:47:59;12.30;99.90
27376;DHT22;14844;51.302;6.354;2023-03-24T04:50:26;12.30;99.90
27376;DHT22;14844;51.302;6.354;2023-03-24T04:52:54;12.30;99.90
27376;DHT22;14844;51.302;6.354;2023-03-24T04:57:56;12.10;99.90
27376;DHT22;14844;51.302;6.354;2023-03-24T05:00:22;12.00;99.90
27376;DHT22;14844;51.302;6.354;2023-03-24T05:02:48;11.90;99.90
27376;DHT22;14844;51.302;6.354;2023-03-24T05:05:16;11.90;99.90
27376;DHT22;14844;51.302;6.354;2023-03-24T05:07:42;11.80;99.90
27376;DHT22;14844;51.302;6.354;2023-03-24T05:10:08;11.70;99.90
27376;DHT22;14844;51.302;6.354;2023-03-24T05:12:34;11.60;99.90
27376;DHT22;14844;51.302;6.354;2023-03-24T05:14:59;11.50;99.90
27376;DHT22;14844;51.302;6.354;2023-03-24T05:17:25;11.40;99.90
27376;DHT22;14844;51.302;6.354;2023-03-24T05:19:51;11.30;99.90
27376;DHT22;14844;51.302;6.354;2023-03-24T05:22:16;11.30;99.90
27376;DHT22;14844;51.302;6.354;2023-03-24T05:24:42;11.30;99.90
27376;DHT22;14844;51.302;6.354;2023-03-24T05:27:07;11.30;99.90
27376;DHT22;14844;51.302;6.354;2023-03-24T05:29:33;11.30;99.90
27376;DHT22;14844;51.302;6.354;2023-03-24T05:31:58;11.30;99.90
27376;DHT22;14844;51.302;6.354;2023-03-24T05:34:24;11.20;99.90
27376;DHT22;14844;51.302;6.354;2023-03-24T05:36:49;11.20;99.90
27376;DHT22;14844;51.302;6.354;2023-03-24T05:39:15;11.10;99.90
27376;DHT22;14844;51.302;6.354;2023-03-24T05:41:40;10.90;99.90
27376;DHT22;14844;51.302;6.354;2023-03-24T05:44:06;10.80;99.90
27376;DHT22;14844;51.302;6.354;2023-03-24T05:46:32;10.80;99.90
27376;DHT22;14844;51.302;6.354;2023-03-24T05:48:57;10.70;99.90
27376;DHT22;14844;51.302;6.354;2023-03-24T05:51:23;10.60;99.90
27376;DHT22;14844;51.302;6.354;2023-03-24T05:53:49;10.60;99.90
27376;DHT22;14844;51.302;6.354;2023-03-24T05:56:16;10.60;99.90
27376;DHT22;14844;51.302;6.354;2023-03-24T05:58:42;10.70;99.90
27376;DHT22;14844;51.302;6.354;2023-03-24T06:01:09;10.70;99.90
27376;DHT22;14844;51.302;6.354;2023-03-24T06:03:35;10.70;99.90
27376;DHT22;14844;51.302;6.354;2023-03-24T06:06:06;10.70;99.90
27376;DHT22;14844;51.302;6.354;2023-03-24T06:08:32;10.80;99.90
27376;DHT22;14844;51.302;6.354;2023-03-24T06:11:00;10.80;99.90
27376;DHT22;14844;51.302;6.354;2023-03-24T06:13:27;10.70;99.90
27376;DHT22;14844;51.302;6.354;2023-03-24T06:15:53;10.60;99.90
27376;DHT22;14844;51.302;6.354;2023-03-24T06:18:25;10.60;99.90
27376;DHT22;14844;51.302;6.354;2023-03-24T06:20:51;10.60;99.90
27376;DHT22;14844;51.302;6.354;2023-03-24T06:23:24;10.60;99.90
27376;DHT22;14844;51.302;6.354;2023-03-24T06:25:55;10.60;99.90
27376;DHT22;14844;51.302;6.354;2023-03-24T06:28:30;10.60;99.90
27376;DHT22;14844;51.302;6.354;2023-03-24T06:33:42;10.60;99.90
27376;DHT22;14844;51.302;6.354;2023-03-24T06:36:08;10.70;99.90
27376;DHT22;14844;51.302;6.354;2023-03-24T06:38:36;10.70;99.90
27376;DHT22;14844;51.302;6.354;2023-03-24T06:41:02;10.80;99.90
27376;DHT22;14844;51.302;6.354;2023-03-24T06:43:28;10.80;99.90
27376;DHT22;14844;51.302;6.354;2023-03-24T06:45:54;10.90;99.90
27376;DHT22;14844;51.302;6.354;2023-03-24T06:48:19;10.90;99.90
27376;DHT22;14844;51.302;6.354;2023-03-24T06:50:45;10.90;99.90
27376;DHT22;14844;51.302;6.354;2023-03-24T06:53:11;11.00;99.90
27376;DHT22;14844;51.302;6.354;2023-03-24T06:55:36;11.10;99.90
27376;DHT22;14844;51.302;6.354;2023-03-24T06:58:01;11.20;99.90
27376;DHT22;14844;51.302;6.354;2023-03-24T07:00:27;11.20;99.90
27376;DHT22;14844;51.302;6.354;2023-03-24T07:02:53;11.40;99.90
27376;DHT22;14844;51.302;6.354;2023-03-24T07:05:20;11.40;99.90
27376;DHT22;14844;51.302;6.354;2023-03-24T07:07:46;11.50;99.90
27376;DHT22;14844;51.302;6.354;2023-03-24T07:10:12;11.60;99.90
27376;DHT22;14844;51.302;6.354;2023-03-24T07:12:38;11.60;99.90
27376;DHT22;14844;51.302;6.354;2023-03-24T07:15:04;11.70;99.90
27376;DHT22;14844;51.302;6.354;2023-03-24T07:17:31;11.70;99.90
27376;DHT22;14844;51.302;6.354;2023-03-24T07:19:57;11.70;99.90
27376;DHT22;14844;51.302;6.354;2023-03-24T07:22:22;11.90;99.90
27376;DHT22;14844;51.302;6.354;2023-03-24T07:24:48;11.90;99.90
27376;DHT22;14844;51.302;6.354;2023-03-24T07:27:13;11.80;99.90
27376;DHT22;14844;51.302;6.354;2023-03-24T07:29:39;11.80;99.90
27376;DHT22;14844;51.302;6.354;2023-03-24T07:32:05;11.90;99.90
27376;DHT22;14844;51.302;6.354;2023-03-24T07:34:32;12.00;99.90
27376;DHT22;14844;51.302;6.354;2023-03-24T07:36:58;12.10;99.90
27376;DHT22;14844;51.302;6.354;2023-03-24T07:39:23;12.20;99.90
27376;DHT22;14844;51.302;6.354;2023-03-24T07:41:49;12.20;99.90
27376;DHT22;14844;51.302;6.354;2023-03-24T07:44:15;12.10;99.90
27376;DHT22;14844;51.302;6.354;2023-03-24T07:46:41;12.20;99.90
27376;DHT22;14844;51.302;6.354;2023-03-24T07:49:06;12.20;99.90
27376;DHT22;14844;51.302;6.354;2023-03-24T07:51:32;12.20;99.90
27376;DHT22;14844;51.302;6.354;2023-03-24T07:53:58;12.30;99.90
27376;DHT22;14844;51.302;6.354;2023-03-24T07:56:23;12.30;99.90
27376;DHT22;14844;51.302;6.354;2023-03-24T07:58:49;12.30;99.90
27376;DHT22;14844;51.302;6.354;2023-03-24T08:01:14;12.40;99.90
27376;DHT22;14844;51.302;6.354;2023-03-24T08:03:40;12.40;99.90
27376;DHT22;14844;51.302;6.354;2023-03-24T08:06:09;12.20;99.90
27376;DHT22;14844;51.302;6.354;2023-03-24T08:08:35;12.10;99.90
27376;DHT22;14844;51.302;6.354;2023-03-24T08:11:01;11.90;99.90
27376;DHT22;14844;51.302;6.354;2023-03-24T08:13:27;11.80;99.90
27376;DHT22;14844;51.302;6.354;2023-03-24T08:15:52;11.90;99.90
27376;DHT22;14844;51.302;6.354;2023-03-24T08:18:19;11.90;99.90
27376;DHT22;14844;51.302;6.354;2023-03-24T08:20:45;12.10;99.90
27376;DHT22;14844;51.302;6.354;2023-03-24T08:23:19;12.20;99.90
27376;DHT22;14844;51.302;6.354;2023-03-24T08:25:55;12.30;99.90
27376;DHT22;14844;51.302;6.354;2023-03-24T08:28:20;12.50;99.90
27376;DHT22;14844;51.302;6.354;2023-03-24T08:30:46;12.60;99.90
27376;DHT22;14844;51.302;6.354;2023-03-24T08:33:12;12.60;99.90
27376;DHT22;14844;51.302;6.354;2023-03-24T08:35:38;12.70;99.90
27376;DHT22;14844;51.302;6.354;2023-03-24T08:38:04;12.80;99.90
27376;DHT22;14844;51.302;6.354;2023-03-24T08:40:30;13.00;99.90
27376;DHT22;14844;51.302;6.354;2023-03-24T08:42:57;13.00;99.90
27376;DHT22;14844;51.302;6.354;2023-03-24T08:45:24;13.10;99.90
27376;DHT22;14844;51.302;6.354;2023-03-24T08:47:55;13.00;99.90
27376;DHT22;14844;51.302;6.354;2023-03-24T08:50:25;13.10;99.90
27376;DHT22;14844;51.302;6.354;2023-03-24T08:52:52;13.10;99.90
27376;DHT22;14844;51.302;6.354;2023-03-24T08:55:18;13.10;99.90
27376;DHT22;14844;51.302;6.354;2023-03-24T08:57:47;13.20;99.90
27376;DHT22;14844;51.302;6.354;2023-03-24T09:00:14;13.30;99.90
27376;DHT22;14844;51.302;6.354;2023-03-24T09:02:43;13.40;99.90
27376;DHT22;14844;51.302;6.354;2023-03-24T09:05:10;13.40;99.90
27376;DHT22;14844;51.302;6.354;2023-03-24T09:07:36;13.40;99.90
27376;DHT22;14844;51.302;6.354;2023-03-24T09:10:02;13.60;99.90
27376;DHT22;14844;51.302;6.354;2023-03-24T09:12:29;13.70;99.90
27376;DHT22;14844;51.302;6.354;2023-03-24T09:14:54;13.80;99.90
27376;DHT22;14844;51.302;6.354;2023-03-24T09:17:22;13.60;99.90
27376;DHT22;14844;51.302;6.354;2023-03-24T09:19:48;13.70;99.90
27376;DHT22;14844;51.302;6.354;2023-03-24T09:22:13;13.50;99.90
27376;DHT22;14844;51.302;6.354;2023-03-24T09:24:39;13.50;99.90
27376;DHT22;14844;51.302;6.354;2023-03-24T09:27:04;13.60;99.90
27376;DHT22;14844;51.302;6.354;2023-03-24T09:29:30;13.50;99.90
27376;DHT22;14844;51.302;6.354;2023-03-24T09:31:56;13.40;99.90
27376;DHT22;14844;51.302;6.354;2023-03-24T09:34:22;13.60;99.90
27376;DHT22;14844;51.302;6.354;2023-03-24T09:36:48;13.90;99.90
27376;DHT22;14844;51.302;6.354;2023-03-24T09:39:13;14.20;99.90
27376;DHT22;14844;51.302;6.354;2023-03-24T09:41:39;14.10;99.90
27376;DHT22;14844;51.302;6.354;2023-03-24T09:44:09;14.00;99.90
27376;DHT22;14844;51.302;6.354;2023-03-24T09:46:42;13.60;99.90
27376;DHT22;14844;51.302;6.354;2023-03-24T09:49:11;13.60;99.90
27376;DHT22;14844;51.302;6.354;2023-03-24T09:51:40;13.60;99.90
27376;DHT22;14844;51.302;6.354;2023-03-24T09:56:32;14.20;99.90
27376;DHT22;14844;51.302;6.354;2023-03-24T09:59:01;14.10;99.90
27376;DHT22;14844;51.302;6.354;2023-03-24T10:01:27;14.20;99.90
27376;DHT22;14844;51.302;6.354;2023-03-24T10:03:54;14.10;99.90
27376;DHT22;14844;51.302;6.354;2023-03-24T10:06:35;13.90;99.90
27376;DHT22;14844;51.302;6.354;2023-03-24T10:11:39;14.50;99.90
27376;DHT22;14844;51.302;6.354;2023-03-24T10:14:09;14.50;99.90
27376;DHT22;14844;51.302;6.354;2023-03-24T10:22:00;14.50;99.90
27376;DHT22;14844;51.302;6.354;2023-03-24T10:24:49;14.50;99.90
27376;DHT22;14844;51.302;6.354;2023-03-24T10:30:27;13.90;99.90
27376;DHT22;14844;51.302;6.354;2023-03-24T10:32:59;13.90;99.90
27376;DHT22;14844;51.302;6.354;2023-03-24T10:35:28;13.90;99.90
27376;DHT22;14844;51.302;6.354;2023-03-24T10:37:55;14.00;99.90
27376;DHT22;14844;51.302;6.354;2023-03-24T10:40:24;14.10;99.90
27376;DHT22;14844;51.302;6.354;2023-03-24T10:42:51;14.00;99.90
27376;DHT22;14844;51.302;6.354;2023-03-24T10:45:27;13.90;99.90
27376;DHT22;14844;51.302;6.354;2023-03-24T10:47:53;13.80;99.90
27376;DHT22;14844;51.302;6.354;2023-03-24T10:50:23;13.90;99.90
27376;DHT22;14844;51.302;6.354;2023-03-24T10:52:48;13.90;99.90
27376;DHT22;14844;51.302;6.354;2023-03-24T10:55:16;14.10;99.90
27376;DHT22;14844;51.302;6.354;2023-03-24T10:57:42;14.20;99.90
27376;DHT22;14844;51.302;6.354;2023-03-24T11:00:15;14.40;99.90
27376;DHT22;14844;51.302;6.354;2023-03-24T11:02:50;14.50;99.90
27376;DHT22;14844;51.302;6.354;2023-03-24T11:05:19;14.60;99.90
27376;DHT22;14844;51.302;6.354;2023-03-24T11:07:47;14.60;99.90
27376;DHT22;14844;51.302;6.354;2023-03-24T11:10:14;14.30;99.90
27376;DHT22;14844;51.302;6.354;2023-03-24T11:13:02;14.20;99.90
27376;DHT22;14844;51.302;6.354;2023-03-24T11:15:35;14.40;99.90
27376;DHT22;14844;51.302;6.354;2023-03-24T11:20:37;14.10;99.90
27376;DHT22;14844;51.302;6.354;2023-03-24T11:23:10;14.20;99.90
27376;DHT22;14844;51.302;6.354;2023-03-24T11:25:39;14.40;99.90
27376;DHT22;14844;51.302;6.354;2023-03-24T11:28:08;14.70;99.90
27376;DHT22;14844;51.302;6.354;2023-03-24T11:30:34;15.00;99.90
27376;DHT22;14844;51.302;6.354;2023-03-24T11:33:10;15.10;99.90
27376;DHT22;14844;51.302;6.354;2023-03-24T11:35:38;15.20;99.90
27376;DHT22;14844;51.302;6.354;2023-03-24T11:38:04;15.30;99.90
27376;DHT22;14844;51.302;6.354;2023-03-24T11:40:30;15.20;99.90
27376;DHT22;14844;51.302;6.354;2023-03-24T11:42:56;15.10;99.90
27376;DHT22;14844;51.302;6.354;2023-03-24T11:45:36;14.90;99.90
27376;DHT22;14844;51.302;6.354;2023-03-24T11:48:04;15.00;99.90
27376;DHT22;14844;51.302;6.354;2023-03-24T11:50:35;14.80;99.90
27376;DHT22;14844;51.302;6.354;2023-03-24T11:53:12;14.90;99.90
27376;DHT22;14844;51.302;6.354;2023-03-24T11:55:49;14.90;99.90
27376;DHT22;14844;51.302;6.354;2023-03-24T11:58:25;15.10;99.90
27376;DHT22;14844;51.302;6.354;2023-03-24T12:05:46;15.10;99.90
27376;DHT22;14844;51.302;6.354;2023-03-24T12:08:35;15.10;99.90
27376;DHT22;14844;51.302;6.354;2023-03-24T12:13:35;15.70;99.90
27376;DHT22;14844;51.302;6.354;2023-03-24T12:21:12;15.30;99.90
27376;DHT22;14844;51.302;6.354;2023-03-24T12:23:56;15.20;99.90
27376;DHT22;14844;51.302;6.354;2023-03-24T12:26:26;15.30;99.90
27376;DHT22;14844;51.302;6.354;2023-03-24T12:31:40;15.70;99.90
27376;DHT22;14844;51.302;6.354;2023-03-24T12:42:04;15.00;99.90
27376;DHT22;14844;51.302;6.354;2023-03-24T12:44:37;14.60;99.90
27376;DHT22;14844;51.302;6.354;2023-03-24T12:55:06;14.30;99.90
27376;DHT22;14844;51.302;6.354;2023-03-24T13:00:35;14.30;99.90
27376;DHT22;14844;51.302;6.354;2023-03-24T13:03:11;14.10;99.90
27376;DHT22;14844;51.302;6.354;2023-03-24T13:05:40;14.00;99.90
27376;DHT22;14844;51.302;6.354;2023-03-24T13:08:14;14.30;99.90
27376;DHT22;14844;51.302;6.354;2023-03-24T13:10:42;14.50;99.90
27376;DHT22;14844;51.302;6.354;2023-03-24T13:13:21;14.60;99.90
27376;DHT22;14844;51.302;6.354;2023-03-24T13:15:54;14.70;99.90
27376;DHT22;14844;51.302;6.354;2023-03-24T13:18:25;15.10;99.90
27376;DHT22;14844;51.302;6.354;2023-03-24T13:28:34;15.90;99.90
27376;DHT22;14844;51.302;6.354;2023-03-24T13:31:02;15.90;99.90
27376;DHT22;14844;51.302;6.354;2023-03-24T13:33:29;16.20;99.90
27376;DHT22;14844;51.302;6.354;2023-03-24T13:38:47;16.00;99.90
27376;DHT22;14844;51.302;6.354;2023-03-24T13:41:16;16.10;99.90
27376;DHT22;14844;51.302;6.354;2023-03-24T13:43:46;16.00;99.90
27376;DHT22;14844;51.302;6.354;2023-03-24T13:46:12;15.80;99.90
27376;DHT22;14844;51.302;6.354;2023-03-24T13:53:44;13.40;99.90
27376;DHT22;14844;51.302;6.354;2023-03-24T13:56:10;12.90;99.90
27376;DHT22;14844;51.302;6.354;2023-03-24T13:58:46;12.80;99.90
27376;DHT22;14844;51.302;6.354;2023-03-24T14:01:14;12.50;99.90
27376;DHT22;14844;51.302;6.354;2023-03-24T14:03:42;12.40;99.90
27376;DHT22;14844;51.302;6.354;2023-03-24T14:06:15;12.40;99.90
27376;DHT22;14844;51.302;6.354;2023-03-24T14:09:03;12.40;99.90
27376;DHT22;14844;51.302;6.354;2023-03-24T14:14:06;12.70;99.90
27376;DHT22;14844;51.302;6.354;2023-03-24T14:19:17;12.60;99.90
27376;DHT22;14844;51.302;6.354;2023-03-24T14:21:43;12.70;99.90
27376;DHT22;14844;51.302;6.354;2023-03-24T14:24:16;12.40;99.90
27376;DHT22;14844;51.302;6.354;2023-03-24T14:26:45;12.10;99.90
27376;DHT22;14844;51.302;6.354;2023-03-24T14:31:58;12.30;99.90
27376;DHT22;14844;51.302;6.354;2023-03-24T14:34:25;12.60;99.90
27376;DHT22;14844;51.302;6.354;2023-03-24T14:37:00;12.70;99.90
27376;DHT22;14844;51.302;6.354;2023-03-24T14:39:46;12.70;99.90
27376;DHT22;14844;51.302;6.354;2023-03-24T14:44:56;13.00;99.90
27376;DHT22;14844;51.302;6.354;2023-03-24T14:49:48;13.50;99.90
27376;DHT22;14844;51.302;6.354;2023-03-24T14:52:19;13.60;99.90
27376;DHT22;14844;51.302;6.354;2023-03-24T14:54:56;13.50;99.90
27376;DHT22;14844;51.302;6.354;2023-03-24T15:02:35;13.10;99.90
27376;DHT22;14844;51.302;6.354;2023-03-24T15:07:57;12.90;99.90
27376;DHT22;14844;51.302;6.354;2023-03-24T15:10:24;12.90;99.90
27376;DHT22;14844;51.302;6.354;2023-03-24T15:12:49;12.90;99.90
27376;DHT22;14844;51.302;6.354;2023-03-24T15:15:17;12.70;99.90
27376;DHT22;14844;51.302;6.354;2023-03-24T15:17:42;12.40;99.90
27376;DHT22;14844;51.302;6.354;2023-03-24T15:20:19;11.80;99.90
27376;DHT22;14844;51.302;6.354;2023-03-24T15:22:45;11.20;99.90
27376;DHT22;14844;51.302;6.354;2023-03-24T15:25:10;10.80;99.90
27376;DHT22;14844;51.302;6.354;2023-03-24T15:27:37;10.70;99.90
27376;DHT22;14844;51.302;6.354;2023-03-24T15:30:12;10.60;99.90
27376;DHT22;14844;51.302;6.354;2023-03-24T15:32:37;10.50;99.90
27376;DHT22;14844;51.302;6.354;2023-03-24T15:35:05;10.30;99.90
27376;DHT22;14844;51.302;6.354;2023-03-24T15:37:50;10.30;99.90
27376;DHT22;14844;51.302;6.354;2023-03-24T15:42:52;10.20;99.90
27376;DHT22;14844;51.302;6.354;2023-03-24T15:45:28;10.20;99.90
27376;DHT22;14844;51.302;6.354;2023-03-24T15:47:54;10.20;99.90
27376;DHT22;14844;51.302;6.354;2023-03-24T15:50:27;10.20;99.90
27376;DHT22;14844;51.302;6.354;2023-03-24T15:55:37;10.40;99.90
27376;DHT22;14844;51.302;6.354;2023-03-24T16:00:47;10.60;99.90
27376;DHT22;14844;51.302;6.354;2023-03-24T16:03:14;11.20;99.90
27376;DHT22;14844;51.302;6.354;2023-03-24T16:05:48;12.10;99.90
27376;DHT22;14844;51.302;6.354;2023-03-24T16:10:55;13.00;99.90
27376;DHT22;14844;51.302;6.354;2023-03-24T16:13:22;13.00;99.90
27376;DHT22;14844;51.302;6.354;2023-03-24T16:18:17;13.70;99.90
27376;DHT22;14844;51.302;6.354;2023-03-24T16:20:45;13.60;99.90
27376;DHT22;14844;51.302;6.354;2023-03-24T16:23:11;13.60;99.90
27376;DHT22;14844;51.302;6.354;2023-03-24T16:25:36;13.70;99.90
27376;DHT22;14844;51.302;6.354;2023-03-24T16:28:02;14.10;99.90
27376;DHT22;14844;51.302;6.354;2023-03-24T16:30:28;14.30;99.90
27376;DHT22;14844;51.302;6.354;2023-03-24T16:32:55;14.60;99.90
27376;DHT22;14844;51.302;6.354;2023-03-24T16:35:20;14.70;99.90
27376;DHT22;14844;51.302;6.354;2023-03-24T16:37:46;14.90;99.90
27376;DHT22;14844;51.302;6.354;2023-03-24T16:40:19;15.10;99.90
27376;DHT22;14844;51.302;6.354;2023-03-24T16:42:45;15.00;99.90
27376;DHT22;14844;51.302;6.354;2023-03-24T16:45:11;14.90;99.90
27376;DHT22;14844;51.302;6.354;2023-03-24T16:47:36;15.00;99.90
27376;DHT22;14844;51.302;6.354;2023-03-24T16:50:13;15.20;99.90
27376;DHT22;14844;51.302;6.354;2023-03-24T16:52:41;15.50;99.90
27376;DHT22;14844;51.302;6.354;2023-03-24T16:55:06;15.40;99.90
27376;DHT22;14844;51.302;6.354;2023-03-24T16:57:32;15.60;99.90
27376;DHT22;14844;51.302;6.354;2023-03-24T16:59:57;15.90;99.90
27376;DHT22;14844;51.302;6.354;2023-03-24T17:02:25;16.10;99.90
27376;DHT22;14844;51.302;6.354;2023-03-24T17:04:50;16.40;99.90
27376;DHT22;14844;51.302;6.354;2023-03-24T17:07:17;16.00;99.90
27376;DHT22;14844;51.302;6.354;2023-03-24T17:09:42;15.70;99.90
27376;DHT22;14844;51.302;6.354;2023-03-24T17:12:08;15.00;99.90
27376;DHT22;14844;51.302;6.354;2023-03-24T17:14:34;14.20;99.90
27376;DHT22;14844;51.302;6.354;2023-03-24T17:16:59;13.50;99.90
27376;DHT22;14844;51.302;6.354;2023-03-24T17:19:26;12.90;99.90
27376;DHT22;14844;51.302;6.354;2023-03-24T17:22:02;12.40;99.90
27376;DHT22;14844;51.302;6.354;2023-03-24T17:24:28;12.10;99.90
27376;DHT22;14844;51.302;6.354;2023-03-24T17:26:54;11.90;99.90
27376;DHT22;14844;51.302;6.354;2023-03-24T17:29:20;11.60;99.90
27376;DHT22;14844;51.302;6.354;2023-03-24T17:31:47;11.40;99.90
27376;DHT22;14844;51.302;6.354;2023-03-24T17:34:12;11.20;99.90
27376;DHT22;14844;51.302;6.354;2023-03-24T17:36:38;11.10;99.90
27376;DHT22;14844;51.302;6.354;2023-03-24T17:39:04;10.90;99.90
27376;DHT22;14844;51.302;6.354;2023-03-24T17:41:30;10.80;99.90
27376;DHT22;14844;51.302;6.354;2023-03-24T17:43:55;10.70;99.90
27376;DHT22;14844;51.302;6.354;2023-03-24T17:46:21;10.70;99.90
27376;DHT22;14844;51.302;6.354;2023-03-24T17:48:46;10.60;99.90
27376;DHT22;14844;51.302;6.354;2023-03-24T17:51:12;10.50;99.90
27376;DHT22;14844;51.302;6.354;2023-03-24T17:53:37;10.40;99.90
27376;DHT22;14844;51.302;6.354;2023-03-24T17:56:03;10.40;99.90
27376;DHT22;14844;51.302;6.354;2023-03-24T17:58:34;10.30;99.90